createdAt,value
2019-01-30T00:00:22.417Z,17.40
2019-01-30T00:02:51.452Z,17.35
2019-01-30T00:05:20.316Z,16.95
2019-01-30T00:07:49.344Z,16.70
2019-01-30T00:10:18.078Z,17.62
2019-01-30T00:12:46.667Z,17.40
2019-01-30T00:15:15.213Z,17.20
2019-01-30T00:17:44.201Z,17.52
2019-01-30T00:20:13.228Z,17.20
2019-01-30T00:22:43.074Z,17.60
2019-01-30T00:25:11.503Z,17.20
2019-01-30T00:27:42.124Z,17.17
2019-01-30T00:30:12.016Z,17.77
2019-01-30T00:32:41.625Z,17.82
2019-01-30T00:35:10.760Z,18.50
2019-01-30T00:37:40.529Z,18.02
2019-01-30T00:40:10.366Z,17.80
2019-01-30T00:42:40.380Z,17.98
2019-01-30T00:45:10.509Z,18.65
2019-01-30T00:47:40.216Z,17.63
2019-01-30T00:50:09.693Z,18.95
2019-01-30T00:52:38.725Z,17.75
2019-01-30T00:55:07.567Z,18.60
2019-01-30T00:57:36.954Z,18.32
2019-01-30T01:00:14.337Z,17.75
2019-01-30T01:02:39.678Z,17.37
2019-01-30T01:05:08.527Z,17.10
2019-01-30T01:07:37.331Z,17.77
2019-01-30T01:10:06.688Z,17.73
2019-01-30T01:12:36.982Z,17.45
2019-01-30T01:15:08.976Z,18.20
2019-01-30T01:17:37.715Z,17.05
2019-01-30T01:20:07.788Z,17.25
2019-01-30T01:22:36.917Z,17.03
2019-01-30T01:25:07.640Z,16.87
2019-01-30T01:27:38.356Z,16.20
2019-01-30T01:30:10.819Z,17.20
2019-01-30T01:32:40.306Z,16.27
2019-01-30T01:35:09.568Z,16.50
2019-01-30T01:37:38.677Z,15.75
2019-01-30T01:40:08.955Z,16.37
2019-01-30T01:42:38.973Z,17.07
2019-01-30T01:45:09.249Z,16.07
2019-01-30T01:47:39.711Z,15.77
2019-01-30T01:50:10.523Z,16.05
2019-01-30T01:52:40.750Z,15.20
2019-01-30T01:55:10.639Z,16.32
2019-01-30T01:57:40.194Z,15.60
2019-01-30T02:00:11.031Z,15.43
2019-01-30T02:02:40.646Z,16.10
2019-01-30T02:05:11.260Z,15.60
2019-01-30T02:07:41.059Z,15.75
2019-01-30T02:10:11.081Z,15.50
2019-01-30T02:12:42.373Z,15.40
2019-01-30T02:15:13.065Z,15.65
2019-01-30T02:17:41.548Z,14.73
2019-01-30T02:20:11.844Z,16.33
2019-01-30T02:22:42.121Z,14.85
2019-01-30T02:25:11.272Z,15.50
2019-01-30T02:27:39.494Z,15.25
2019-01-30T02:30:10.669Z,15.13
2019-01-30T02:32:39.706Z,14.73
2019-01-30T02:35:08.184Z,15.00
2019-01-30T02:37:36.859Z,15.10
2019-01-30T02:40:05.942Z,15.90
2019-01-30T02:42:34.169Z,15.68
2019-01-30T02:45:02.510Z,15.30
2019-01-30T02:47:30.993Z,15.35
2019-01-30T02:49:59.354Z,15.80
2019-01-30T02:52:27.476Z,15.60
2019-01-30T02:54:55.648Z,15.38
2019-01-30T02:57:24.213Z,15.20
2019-01-30T02:59:52.336Z,14.40
2019-01-30T03:02:24.977Z,14.80
2019-01-30T03:04:54.432Z,14.40
2019-01-30T03:07:24.833Z,15.15
2019-01-30T03:09:53.100Z,15.80
2019-01-30T03:12:21.648Z,15.00
2019-01-30T03:14:50.828Z,14.00
2019-01-30T03:17:19.420Z,14.68
2019-01-30T03:19:47.543Z,14.90
2019-01-30T03:22:16.077Z,15.93
2019-01-30T03:24:44.475Z,15.20
2019-01-30T03:27:12.804Z,15.32
2019-01-30T03:29:42.803Z,15.58
2019-01-30T03:32:11.551Z,16.10
2019-01-30T03:34:39.931Z,15.88
2019-01-30T03:37:08.144Z,15.48
2019-01-30T03:39:36.869Z,16.03
2019-01-30T03:42:05.694Z,16.73
2019-01-30T03:44:34.160Z,16.30
2019-01-30T03:47:02.267Z,16.90
2019-01-30T03:49:30.734Z,16.42
2019-01-30T03:51:58.883Z,16.90
2019-01-30T03:54:27.095Z,16.70
2019-01-30T03:56:55.187Z,16.50
2019-01-30T03:59:23.237Z,16.75
2019-01-30T04:01:53.164Z,16.97
2019-01-30T04:04:21.896Z,16.20
2019-01-30T04:06:50.352Z,15.78
2019-01-30T04:09:18.608Z,17.02
2019-01-30T04:11:47.682Z,15.78
2019-01-30T04:14:15.763Z,15.78
2019-01-30T04:16:44.115Z,15.70
2019-01-30T04:19:13.223Z,15.63
2019-01-30T04:21:41.470Z,17.87
2019-01-30T04:24:09.556Z,16.15
2019-01-30T04:26:37.624Z,14.40
2019-01-30T04:29:06.419Z,14.95
2019-01-30T04:31:38.200Z,17.30
2019-01-30T04:34:05.844Z,15.20
2019-01-30T04:36:34.308Z,14.57
2019-01-30T04:39:02.733Z,14.30
2019-01-30T04:41:31.087Z,14.37
2019-01-30T04:43:59.695Z,15.03
2019-01-30T04:46:28.401Z,15.10
2019-01-30T04:48:56.734Z,15.15
2019-01-30T04:51:25.145Z,14.15
2019-01-30T04:53:53.826Z,14.85
2019-01-30T04:56:22.594Z,14.07
2019-01-30T04:58:51.374Z,14.53
2019-01-30T05:01:19.917Z,15.30
2019-01-30T05:03:47.858Z,14.00
2019-01-30T05:06:16.258Z,14.13
2019-01-30T05:08:44.755Z,14.55
2019-01-30T05:11:13.172Z,14.03
2019-01-30T05:13:41.712Z,14.45
2019-01-30T05:16:09.705Z,14.70
2019-01-30T05:18:38.341Z,13.55
2019-01-30T05:21:06.516Z,14.40
2019-01-30T05:23:34.640Z,14.43
2019-01-30T05:26:03.161Z,14.60
2019-01-30T05:28:31.294Z,14.20
2019-01-30T05:30:59.648Z,14.53
2019-01-30T05:33:27.804Z,14.50
2019-01-30T05:35:56.272Z,13.53
2019-01-30T05:38:24.461Z,13.95
2019-01-30T05:40:52.631Z,13.83
2019-01-30T05:43:20.813Z,14.25
2019-01-30T05:45:48.889Z,14.38
2019-01-30T05:48:17.741Z,14.87
2019-01-30T05:50:46.688Z,14.80
2019-01-30T05:53:14.775Z,14.70
2019-01-30T05:55:43.545Z,15.30
2019-01-30T05:58:12.382Z,15.50
2019-01-30T06:00:42.731Z,15.10
2019-01-30T06:03:12.567Z,14.10
2019-01-30T06:05:41.236Z,14.95
2019-01-30T06:08:09.421Z,15.70
2019-01-30T06:10:37.591Z,15.10
2019-01-30T06:13:05.946Z,14.93
2019-01-30T06:15:34.407Z,14.80
2019-01-30T06:18:03.042Z,14.38
2019-01-30T06:20:31.212Z,14.40
2019-01-30T06:23:01.642Z,14.63
2019-01-30T06:25:29.405Z,14.80
2019-01-30T06:27:57.532Z,15.32
2019-01-30T06:30:26.070Z,15.35
2019-01-30T06:32:54.396Z,15.00
2019-01-30T06:35:24.491Z,14.00
2019-01-30T06:37:53.203Z,14.33
2019-01-30T06:40:25.483Z,13.83
2019-01-30T06:42:53.577Z,13.30
2019-01-30T06:45:23.787Z,13.60
2019-01-30T06:47:51.902Z,14.27
2019-01-30T06:50:20.112Z,13.60
2019-01-30T06:52:48.431Z,13.10
2019-01-30T06:55:16.491Z,13.50
2019-01-30T06:57:45.203Z,13.03
2019-01-30T07:00:14.649Z,13.50
2019-01-30T07:02:42.813Z,12.45
2019-01-30T07:05:11.203Z,12.15
2019-01-30T07:07:39.301Z,12.37
2019-01-30T07:10:09.200Z,12.37
2019-01-30T07:12:38.092Z,12.20
2019-01-30T07:15:06.453Z,11.97
2019-01-30T07:17:35.365Z,11.90
2019-01-30T07:20:03.995Z,11.28
2019-01-30T07:22:32.533Z,10.80
2019-01-30T07:25:01.317Z,10.63
2019-01-30T07:27:29.554Z,11.03
2019-01-30T07:29:59.019Z,10.98
2019-01-30T07:32:27.697Z,10.78
2019-01-30T07:34:56.066Z,11.00
2019-01-30T07:37:24.543Z,10.90
2019-01-30T07:39:53.235Z,10.70
2019-01-30T07:42:21.489Z,11.73
2019-01-30T07:44:50.926Z,11.22
2019-01-30T07:47:20.057Z,11.63
2019-01-30T07:49:48.730Z,11.40
2019-01-30T07:52:16.947Z,12.28
2019-01-30T07:54:45.255Z,11.90
2019-01-30T07:57:14.083Z,11.53
2019-01-30T07:59:42.567Z,11.30
2019-01-30T08:02:10.956Z,11.22
2019-01-30T08:04:39.116Z,11.73
2019-01-30T08:07:07.704Z,10.75
2019-01-30T08:09:36.147Z,10.80
2019-01-30T08:12:05.602Z,11.40
2019-01-30T08:14:34.443Z,11.60
2019-01-30T08:17:02.476Z,10.75
2019-01-30T08:19:31.058Z,11.45
2019-01-30T08:21:59.203Z,10.60
2019-01-30T08:24:28.934Z,10.63
2019-01-30T08:26:57.773Z,10.45
2019-01-30T08:29:26.119Z,10.30
2019-01-30T08:31:54.297Z,9.98
2019-01-30T08:34:23.791Z,9.80
2019-01-30T08:36:51.889Z,9.80
2019-01-30T08:39:20.661Z,10.10
2019-01-30T08:41:48.787Z,9.63
2019-01-30T08:44:17.342Z,9.35
2019-01-30T08:46:45.463Z,9.15
2019-01-30T08:49:13.509Z,9.20
2019-01-30T08:51:41.722Z,8.95
2019-01-30T08:54:10.365Z,8.40
2019-01-30T08:56:52.232Z,8.50
2019-01-30T08:59:08.679Z,8.48
2019-01-30T09:01:36.793Z,8.45
2019-01-30T09:04:05.378Z,8.20
2019-01-30T09:06:33.500Z,8.37
2019-01-30T09:09:01.553Z,8.80
2019-01-30T09:11:30.140Z,7.90
2019-01-30T09:13:58.444Z,8.20
2019-01-30T09:16:26.724Z,8.13
2019-01-30T09:18:54.992Z,8.40
2019-01-30T09:21:25.018Z,7.30
2019-01-30T09:23:53.070Z,8.03
2019-01-30T09:26:21.524Z,8.20
2019-01-30T09:28:49.608Z,7.80
2019-01-30T09:31:18.084Z,7.08
2019-01-30T09:33:46.932Z,7.30
2019-01-30T09:36:15.151Z,7.35
2019-01-30T09:38:44.047Z,7.10
2019-01-30T09:41:12.493Z,7.30
2019-01-30T09:43:40.584Z,7.20
2019-01-30T09:46:08.816Z,7.40
2019-01-30T09:48:37.521Z,7.58
2019-01-30T09:51:06.144Z,7.10
2019-01-30T09:53:34.530Z,6.60
2019-01-30T09:56:02.680Z,6.50
2019-01-30T09:58:30.812Z,6.97
2019-01-30T10:00:59.313Z,6.70
2019-01-30T10:03:35.986Z,6.60
2019-01-30T10:05:57.844Z,6.50
2019-01-30T10:08:25.957Z,6.50
2019-01-30T10:10:54.347Z,6.40
2019-01-30T10:13:23.225Z,6.20
2019-01-30T10:15:53.414Z,6.30
2019-01-30T10:18:21.941Z,6.30
2019-01-30T10:20:51.092Z,5.90
2019-01-30T10:23:19.690Z,7.10
2019-01-30T10:25:48.496Z,6.53
2019-01-30T10:28:17.250Z,6.25
2019-01-30T10:30:46.176Z,5.92
2019-01-30T10:33:14.787Z,6.12
2019-01-30T10:35:43.137Z,5.87
2019-01-30T10:38:11.229Z,6.00
2019-01-30T10:40:39.325Z,5.50
2019-01-30T10:43:08.092Z,6.40
2019-01-30T10:45:38.151Z,5.73
2019-01-30T10:48:06.641Z,5.70
2019-01-30T10:50:34.819Z,5.30
2019-01-30T10:53:03.236Z,5.10
2019-01-30T10:55:32.295Z,5.00
2019-01-30T10:58:01.448Z,5.33
2019-01-30T11:00:33.939Z,5.23
2019-01-30T11:03:02.030Z,5.20
2019-01-30T11:05:30.255Z,5.00
2019-01-30T11:08:00.707Z,5.03
2019-01-30T11:10:30.666Z,5.00
2019-01-30T11:12:59.740Z,4.70
2019-01-30T11:15:28.343Z,5.00
2019-01-30T11:17:57.153Z,5.10
2019-01-30T11:20:25.734Z,4.55
2019-01-30T11:22:54.049Z,4.90
2019-01-30T11:25:24.035Z,4.80
2019-01-30T11:27:52.636Z,4.60
2019-01-30T11:30:21.240Z,5.00
2019-01-30T11:32:49.413Z,4.73
2019-01-30T11:35:18.060Z,4.83
2019-01-30T11:37:46.253Z,4.85
2019-01-30T11:40:15.072Z,5.08
2019-01-30T11:42:43.232Z,4.87
2019-01-30T11:45:13.276Z,4.85
2019-01-30T11:47:41.511Z,5.15
2019-01-30T11:50:10.569Z,4.42
2019-01-30T11:52:40.479Z,4.92
2019-01-30T11:55:10.077Z,5.08
2019-01-30T11:57:38.430Z,4.50
2019-01-30T12:00:07.485Z,4.50
2019-01-30T12:02:35.946Z,4.50
2019-01-30T12:05:04.736Z,4.70
2019-01-30T12:07:34.035Z,4.40
2019-01-30T12:10:02.792Z,4.58
2019-01-30T12:12:31.068Z,4.65
2019-01-30T12:15:00.350Z,4.87
2019-01-30T12:17:29.094Z,4.53
2019-01-30T12:19:59.076Z,4.30
2019-01-30T12:22:27.897Z,4.25
2019-01-30T12:24:56.335Z,4.30
2019-01-30T12:27:25.394Z,4.00
2019-01-30T12:29:53.601Z,4.30
2019-01-30T12:32:22.222Z,3.95
2019-01-30T12:34:51.026Z,4.00
2019-01-30T12:37:19.237Z,4.30
2019-01-30T12:39:47.670Z,4.00
2019-01-30T12:42:16.333Z,4.00
2019-01-30T12:44:44.740Z,4.00
2019-01-30T12:47:19.817Z,4.10
2019-01-30T12:49:43.511Z,3.87
2019-01-30T12:52:11.946Z,4.30
2019-01-30T12:54:42.155Z,3.47
2019-01-30T12:57:10.275Z,3.80
2019-01-30T12:59:38.712Z,4.20
2019-01-30T13:02:07.593Z,3.85
2019-01-30T13:04:38.752Z,4.00
2019-01-30T13:07:06.259Z,3.90
2019-01-30T13:09:34.413Z,4.20
2019-01-30T13:12:03.204Z,3.60
2019-01-30T13:14:31.376Z,4.10
2019-01-30T13:16:59.871Z,4.20
2019-01-30T13:19:28.718Z,3.95
2019-01-30T13:21:57.171Z,3.70
2019-01-30T13:24:25.876Z,4.35
2019-01-30T13:26:54.401Z,3.83
2019-01-30T13:29:23.496Z,3.80
2019-01-30T13:31:51.673Z,3.90
2019-01-30T13:34:19.844Z,3.85
2019-01-30T13:36:48.214Z,3.50
2019-01-30T13:39:16.268Z,3.70
2019-01-30T13:41:45.155Z,3.72
2019-01-30T13:44:13.232Z,3.50
2019-01-30T13:46:41.424Z,3.50
2019-01-30T13:49:09.750Z,3.50
2019-01-30T13:51:37.885Z,3.70
2019-01-30T13:54:07.161Z,3.85
2019-01-30T13:56:35.377Z,4.00
2019-01-30T13:59:03.980Z,3.83
2019-01-30T14:01:32.075Z,4.05
2019-01-30T14:04:00.460Z,4.08
2019-01-30T14:06:30.321Z,3.92
2019-01-30T14:09:00.597Z,4.20
2019-01-30T14:11:29.298Z,3.85
2019-01-30T14:14:06.327Z,4.15
2019-01-30T14:16:35.164Z,4.50
2019-01-30T14:19:05.592Z,3.85
2019-01-30T14:21:34.347Z,4.60
2019-01-30T14:24:02.853Z,4.30
2019-01-30T14:26:32.111Z,4.30
2019-01-30T14:29:00.575Z,4.50
2019-01-30T14:31:30.287Z,4.58
2019-01-30T14:36:45.505Z,4.20
2019-01-30T14:39:15.403Z,4.50
2019-01-30T14:41:43.815Z,4.80
2019-01-30T14:44:12.195Z,4.80
2019-01-30T14:46:40.284Z,5.12
2019-01-30T14:49:08.831Z,5.08
2019-01-30T14:51:37.447Z,4.80
2019-01-30T14:54:05.832Z,5.37
2019-01-30T14:56:36.280Z,5.20
2019-01-30T14:59:12.727Z,5.10
2019-01-30T15:01:46.161Z,5.62
2019-01-30T15:04:19.875Z,5.70
2019-01-30T15:06:49.088Z,5.78
2019-01-30T15:09:17.244Z,5.60
2019-01-30T15:11:45.371Z,5.78
2019-01-30T15:14:13.855Z,5.93
2019-01-30T15:16:42.506Z,6.10
2019-01-30T15:19:11.683Z,6.90
2019-01-30T15:21:39.786Z,7.20
2019-01-30T15:24:08.232Z,6.60
2019-01-30T15:26:36.399Z,5.75
2019-01-30T15:29:04.889Z,6.25
2019-01-30T15:31:34.940Z,6.37
2019-01-30T15:34:03.991Z,7.05
2019-01-30T15:36:32.860Z,6.92
2019-01-30T15:39:01.439Z,7.58
2019-01-30T15:41:29.806Z,7.53
2019-01-30T15:43:58.813Z,7.05
2019-01-30T15:46:29.031Z,7.50
2019-01-30T15:48:57.661Z,8.28
2019-01-30T15:51:26.542Z,8.18
2019-01-30T15:53:54.938Z,8.10
2019-01-30T15:56:23.117Z,7.60
2019-01-30T15:58:52.128Z,8.67
2019-01-30T16:01:23.400Z,8.00
2019-01-30T16:03:52.525Z,8.15
2019-01-30T16:06:20.990Z,8.15
2019-01-30T16:08:50.861Z,8.40
2019-01-30T16:11:20.467Z,8.30
2019-01-30T16:13:49.139Z,8.65
2019-01-30T16:16:17.482Z,8.13
2019-01-30T16:18:45.761Z,8.53
2019-01-30T16:21:13.777Z,8.78
2019-01-30T16:23:41.983Z,8.27
2019-01-30T16:26:10.214Z,8.70
2019-01-30T16:28:39.843Z,9.43
2019-01-30T16:31:08.568Z,8.88
2019-01-30T16:33:36.948Z,8.70
2019-01-30T16:36:05.318Z,8.40
2019-01-30T16:38:33.704Z,8.80
2019-01-30T16:41:01.920Z,8.73
2019-01-30T16:43:30.563Z,8.00
2019-01-30T16:45:59.752Z,8.90
2019-01-30T16:48:30.797Z,8.58
2019-01-30T16:51:00.075Z,8.80
2019-01-30T16:53:29.035Z,8.75
2019-01-30T16:55:57.151Z,9.10
2019-01-30T16:58:26.683Z,9.33
2019-01-30T17:00:55.248Z,8.50
2019-01-30T17:03:23.536Z,8.60
2019-01-30T17:05:52.165Z,8.78
2019-01-30T17:08:20.585Z,8.60
2019-01-30T17:10:49.026Z,8.90
2019-01-30T17:13:17.580Z,8.65
2019-01-30T17:15:45.615Z,8.40
2019-01-30T17:18:14.236Z,8.70
2019-01-30T17:20:42.389Z,9.23
2019-01-30T17:23:10.652Z,8.43
2019-01-30T17:25:38.915Z,8.63
2019-01-30T17:28:07.859Z,8.30
2019-01-30T17:30:37.419Z,8.60
2019-01-30T17:33:05.714Z,8.85
2019-01-30T17:35:49.348Z,8.60
2019-01-30T17:38:27.985Z,8.98
2019-01-30T17:41:11.078Z,8.70
2019-01-30T17:43:41.053Z,8.90
2019-01-30T17:46:09.196Z,8.68
2019-01-30T17:48:37.992Z,9.00
2019-01-30T17:51:06.100Z,8.80
2019-01-30T17:53:35.043Z,8.90
2019-01-30T17:56:03.168Z,8.80
2019-01-30T17:58:34.347Z,8.65
2019-01-30T18:01:02.691Z,8.83
2019-01-30T18:03:31.369Z,8.68
2019-01-30T18:05:59.684Z,9.13
2019-01-30T18:08:28.198Z,9.18
2019-01-30T18:10:56.957Z,8.85
2019-01-30T18:13:25.263Z,9.25
2019-01-30T18:15:53.322Z,8.90
2019-01-30T18:18:27.372Z,8.85
2019-01-30T18:20:55.564Z,8.95
2019-01-30T18:23:24.109Z,9.25
2019-01-30T18:25:52.340Z,8.83
2019-01-30T18:28:21.012Z,8.58
2019-01-30T18:30:49.170Z,9.40
2019-01-30T18:33:17.520Z,8.38
2019-01-30T18:35:46.156Z,8.33
2019-01-30T18:38:14.320Z,8.83
2019-01-30T18:40:42.845Z,8.90
2019-01-30T18:43:11.244Z,8.63
2019-01-30T18:45:39.896Z,14.87
2019-01-30T18:48:08.623Z,20.50
2019-01-30T18:50:37.223Z,9.30
2019-01-30T18:53:05.327Z,9.50
2019-01-30T18:55:33.452Z,8.70
2019-01-30T18:58:01.746Z,8.28
2019-01-30T19:00:34.107Z,8.60
2019-01-30T19:03:02.721Z,8.45
2019-01-30T19:05:32.161Z,8.43
2019-01-30T19:08:00.301Z,8.70
2019-01-30T19:10:28.578Z,8.07
2019-01-30T19:12:56.750Z,9.60
2019-01-30T19:15:25.607Z,9.93
2019-01-30T19:17:53.754Z,8.60
2019-01-30T19:20:23.592Z,8.50
2019-01-30T19:22:51.689Z,7.97
2019-01-30T19:25:20.204Z,8.38
2019-01-30T19:27:48.685Z,8.40
2019-01-30T19:30:21.048Z,7.70
2019-01-30T19:32:49.751Z,7.60
2019-01-30T19:35:18.833Z,8.17
2019-01-30T19:37:47.115Z,7.90
2019-01-30T19:40:15.675Z,7.70
2019-01-30T19:42:44.128Z,8.03
2019-01-30T19:45:13.019Z,8.20
2019-01-30T19:47:41.684Z,8.30
2019-01-30T19:50:14.372Z,8.25
2019-01-30T19:52:44.236Z,8.13
2019-01-30T19:55:12.676Z,8.00
2019-01-30T19:57:41.159Z,11.80
2019-01-30T20:00:12.461Z,11.00
2019-01-30T20:02:40.501Z,8.45
2019-01-30T20:05:10.115Z,8.08
2019-01-30T20:07:38.779Z,8.20
2019-01-30T20:10:10.000Z,8.20
2019-01-30T20:12:38.029Z,8.15
2019-01-30T20:15:09.196Z,8.10
2019-01-30T20:17:37.483Z,8.25
2019-01-30T20:20:06.361Z,8.23
2019-01-30T20:22:34.565Z,8.70
2019-01-30T20:25:02.580Z,8.33
2019-01-30T20:27:30.551Z,9.40
2019-01-30T20:29:58.789Z,8.30
2019-01-30T20:32:27.054Z,8.65
2019-01-30T20:34:55.287Z,8.80
2019-01-30T20:37:26.226Z,9.40
2019-01-30T20:39:53.536Z,9.40
2019-01-30T20:42:21.805Z,9.48
2019-01-30T20:44:50.080Z,9.55
2019-01-30T20:47:18.073Z,9.40
2019-01-30T20:49:46.609Z,9.70
2019-01-30T20:52:14.602Z,9.60
2019-01-30T20:54:43.171Z,10.05
2019-01-30T20:57:11.166Z,10.28
2019-01-30T20:59:39.136Z,9.85
2019-01-30T21:02:07.092Z,10.20
2019-01-30T21:04:36.197Z,11.00
2019-01-30T21:07:04.461Z,10.58
2019-01-30T21:09:32.746Z,10.28
2019-01-30T21:12:01.270Z,10.43
2019-01-30T21:14:29.258Z,10.30
2019-01-30T21:16:57.252Z,10.90
2019-01-30T21:19:25.229Z,11.00
2019-01-30T21:21:54.644Z,10.50
2019-01-30T21:24:22.580Z,10.70
2019-01-30T21:26:50.893Z,10.60
2019-01-30T21:29:18.882Z,11.05
2019-01-30T21:31:46.866Z,11.25
2019-01-30T21:34:14.847Z,11.63
2019-01-30T21:36:42.789Z,11.78
2019-01-30T21:39:11.458Z,11.93
2019-01-30T21:41:39.732Z,10.90
2019-01-30T21:44:07.738Z,10.82
2019-01-30T21:46:35.978Z,11.43
2019-01-30T21:49:03.946Z,11.30
2019-01-30T21:51:31.975Z,12.20
2019-01-30T21:54:00.256Z,12.17
2019-01-30T21:56:28.589Z,11.70
2019-01-30T21:58:57.493Z,11.12
2019-01-30T22:01:25.824Z,11.85
2019-01-30T22:03:54.127Z,11.87
2019-01-30T22:06:22.344Z,11.85
2019-01-30T22:08:50.305Z,12.68
2019-01-30T22:11:18.540Z,12.70
2019-01-30T22:13:47.101Z,11.83
2019-01-30T22:16:15.443Z,11.75
2019-01-30T22:18:43.457Z,12.78
2019-01-30T22:21:12.008Z,12.83
2019-01-30T22:23:40.028Z,12.93
2019-01-30T22:26:08.221Z,12.70
2019-01-30T22:28:36.177Z,12.90
2019-01-30T22:31:04.556Z,12.65
2019-01-30T22:33:32.964Z,13.28
2019-01-30T22:36:01.306Z,12.73
2019-01-30T22:38:29.292Z,12.70
2019-01-30T22:40:57.260Z,13.68
2019-01-30T22:43:25.345Z,13.10
2019-01-30T22:45:53.392Z,13.32
2019-01-30T22:48:21.341Z,12.93
2019-01-30T22:50:49.903Z,13.20
2019-01-30T22:53:18.120Z,13.47
2019-01-30T22:55:46.392Z,13.50
2019-01-30T22:58:14.703Z,13.90
2019-01-30T23:01:10.800Z,14.20
2019-01-30T23:03:41.333Z,14.10
2019-01-30T23:06:28.417Z,13.80
2019-01-30T23:09:15.862Z,14.20
2019-01-30T23:12:08.725Z,13.90
2019-01-30T23:14:42.464Z,13.70
2019-01-30T23:17:38.418Z,14.00
2019-01-30T23:20:08.991Z,13.93
2019-01-30T23:22:55.300Z,14.40
2019-01-30T23:25:29.900Z,14.78
2019-01-30T23:28:02.093Z,14.87
2019-01-30T23:30:48.030Z,15.60
2019-01-30T23:33:34.177Z,15.08
2019-01-30T23:36:21.916Z,15.23
2019-01-30T23:38:54.402Z,14.95
2019-01-30T23:41:56.816Z,15.40
2019-01-30T23:44:34.243Z,16.52
2019-01-30T23:47:13.276Z,15.83
2019-01-30T23:49:44.798Z,15.30
2019-01-30T23:52:23.490Z,16.12
2019-01-30T23:55:17.234Z,15.78
2019-01-30T23:58:10.139Z,15.70
